Aérodrome :
LOGIN :

S'inscrire | Disclaimer

   EN    FR    IT 

 










Légende :    VFR   VFR Marginal   IFR   IFR Intensif   IFR Très Intensif
Visi : 
Plafond : 
>= 8 km
>= 3000ft
5 à 8 km
1000 à 3000 ft
1500m à 5 km
500 à 1000 ft
800 à 1500m
200 à 500 ft
< 800m
< 200 ft
Symboles :   Orages  Brouillard  Fortes neiges  Fortes précipitations  Vent > 20 kt
SIGMETs :   Divers  Orages  Givrage  Turbulence  Onde Orograph.  Cendres Volcan.






- Altitude de l'aérodrome : 160 ft
- Code IATA : FMO


EDDG - Münster Osnabrück Int.

DERNIER METAR :
  • 290950Z 01013KT 9000 -SNRA SCT010 BKN014 02/M00 Q1027 TEMPO 02020G30KT 4000

METARs EXPIRÉS :
  • 290920Z 36012KT 320V030 8000 -SNRA FEW014 BKN017 02/M00 Q1027 TEMPO 02020G30KT 4000 BKN014
  • 290850Z 36013KT 9999 -SNRA SCT017 BKN023 02/M01 Q1027 TEMPO 02020G30KT
  • 290820Z 36015KT 9999 -RA FEW016 BKN020 03/M01 Q1027 TEMPO 02020G30KT
  • 290750Z 36016G26KT 9999 BKN025 04/M01 Q1026 NOSIG
  • 290720Z 36016G27KT 330V040 9999 FEW025 BKN033 04/M02 Q1026 NOSIG
  • 290650Z 36011KT 9999 FEW028 BKN037 04/M02 Q1025 NOSIG

TAF TAF EDDG
Valide du 29 à 06h jusqu'au 30 à 06h UTC


290500Z 2906/3006 35010KT 9999 SCT025
BECMG 2907/2910 01015G25KT
TEMPO 2908/2915 4000 -SHSNRA BKN012TCU
PROB30
TEMPO 2909/2912 2500 SHSNRA
TEMPO 2911/2915 02020G30KT
BECMG 2915/2918 01010KT
BECMG 2921/2924 VRB03KT



MET'MAP, la Météo Aéronautique d'un coup d'oeil ! - Copyright ORBIFLY Décembre 2007 - Disclaimer

ORBIFLY MET'MAP TEAM :

Programmation & Développement : Alexandra Zaïnal
Sur une idée originale de : Baudouin d'Aumeries
Assistance à la programmation : Marc-Olivier Méhu
Soutien technique & logistique : Manuel Goepfert

Contact : metmap@orbifly.com




SOURCES & CREDITS :

   NOAA